Time;durP1;ratioP1;P1;durP2;ratioP2;P2;SDS_P1;SDS_P2;PMS_P1;PMS_P2;Temp;Humidity;BMP_temperature;BMP_pressure;BME280_temperature;BME280_humidity;BME280_pressure;Samples;Min_cycle;Max_cycle;Signal;HPM_P1;HPM_P2
2023/06/04 00:00:53;;;;;;;5.00;2.77;;;7.20;99.90;6.20;101120;;;;587097;241;23986;-79
2023/06/04 00:03:18;;;;;;;2.40;2.20;;;7.10;99.90;6.20;101112;;;;584457;240;24085;-78
2023/06/04 00:05:46;;;;;;;4.13;2.77;;;7.20;99.90;6.30;101113;;;;588237;240;23977;-80
2023/06/04 00:08:15;;;;;;;6.40;2.50;;;7.20;99.90;6.30;101109;;;;582843;240;34705;-81
2023/06/04 00:10:43;;;;;;;4.87;2.67;;;7.20;99.90;6.30;101110;;;;582804;241;34723;-82
2023/06/04 00:13:12;;;;;;;4.37;2.37;;;7.20;99.90;6.30;101103;;;;587712;241;24057;-83
2023/06/04 00:15:40;;;;;;;5.13;2.17;;;7.20;99.90;6.30;101103;;;;587198;241;24026;-82
2023/06/04 00:18:07;;;;;;;6.33;2.73;;;7.20;99.90;6.30;101101;;;;587730;241;24017;-83
2023/06/04 00:20:35;;;;;;;3.50;1.83;;;7.60;99.90;6.30;101100;;;;587534;241;24060;-77
2023/06/04 00:23:03;;;;;;;1.83;1.73;;;7.20;99.90;6.30;101106;;;;587331;241;24022;-80
2023/06/04 00:25:31;;;;;;;6.97;2.17;;;7.20;99.90;6.30;101107;;;;587436;241;24008;-80
2023/06/04 00:27:59;;;;;;;3.87;2.07;;;7.20;99.90;6.20;101109;;;;587247;241;24006;-79
2023/06/04 00:30:27;;;;;;;2.90;2.10;;;7.20;99.90;6.20;101103;;;;587400;241;23976;-81
2023/06/04 00:32:55;;;;;;;3.00;1.73;;;7.10;99.90;6.20;101095;;;;586880;241;24012;-81
2023/06/04 00:35:23;;;;;;;2.87;1.60;;;7.10;99.90;6.20;101095;;;;587063;241;24045;-80
2023/06/04 00:37:51;;;;;;;2.60;2.00;;;7.10;99.90;6.20;101105;;;;586870;241;23977;-77
2023/06/04 00:40:19;;;;;;;2.30;2.20;;;7.10;99.90;6.20;101105;;;;586929;241;24018;-82
2023/06/04 00:42:47;;;;;;;2.50;2.30;;;7.10;99.90;6.20;101110;;;;586832;241;23988;-80
2023/06/04 00:45:18;;;;;;;4.53;2.37;;;7.10;99.90;6.20;101110;;;;587188;241;23985;-81
2023/06/04 00:47:46;;;;;;;2.83;2.10;;;7.10;99.90;6.10;101103;;;;587061;241;25103;-82
2023/06/04 00:50:14;;;;;;;2.07;1.87;;;7.10;99.90;6.10;101092;;;;582932;241;24006;-81
2023/06/04 00:52:42;;;;;;;2.10;1.90;;;7.10;99.90;6.10;101094;;;;586987;241;24019;-81
2023/06/04 00:55:10;;;;;;;2.20;2.00;;;7.00;99.90;6.10;101088;;;;583057;241;24008;-80
2023/06/04 00:57:35;;;;;;;2.20;2.00;;;6.90;99.90;6.10;101091;;;;586825;241;24060;-81
2023/06/04 01:00:06;;;;;;;2.97;1.93;;;7.00;99.90;6.10;101093;;;;586852;241;23977;-79
2023/06/04 01:02:31;;;;;;;2.90;2.03;;;7.00;99.90;6.10;101088;;;;586999;241;24019;-82
2023/06/04 01:05:11;;;;;;;2.43;1.90;;;7.00;99.90;6.00;101096;;;;587213;241;23961;-83
2023/06/04 01:07:40;;;;;;;2.10;1.77;;;7.00;99.90;6.00;101077;;;;587145;241;24008;-82
2023/06/04 01:10:06;;;;;;;2.33;2.13;;;7.00;99.90;6.00;101074;;;;587033;241;24004;-82
2023/06/04 01:12:34;;;;;;;2.27;1.90;;;6.90;99.90;6.00;101081;;;;587130;241;24012;-82
2023/06/04 01:15:02;;;;;;;2.60;2.30;;;6.90;99.90;6.00;101079;;;;588714;240;23990;-83
2023/06/04 01:17:36;;;;;;;2.40;2.20;;;6.90;99.90;6.00;101077;;;;587952;240;24013;-80
2023/06/04 01:20:32;;;;;;;2.30;2.10;;;6.90;99.90;6.00;101076;;;;587133;240;24006;-82
2023/06/04 01:23:42;;;;;;;6.63;2.03;;;6.90;99.90;5.90;101076;;;;587424;241;24007;-82
2023/06/04 01:26:07;;;;;;;4.63;2.33;;;6.90;99.90;5.90;101072;;;;587121;241;24015;-82
2023/06/04 01:28:38;;;;;;;3.20;2.17;;;6.80;99.90;6.00;101077;;;;582268;241;34618;-83
2023/06/04 01:31:06;;;;;;;3.22;1.62;;;6.80;99.90;5.90;101071;;;;582148;241;34655;-81
2023/06/04 01:33:31;;;;;;;5.45;1.92;;;6.80;99.90;5.90;101073;;;;582224;241;45560;-82
2023/06/04 01:35:59;;;;;;;3.80;1.50;;;6.80;99.90;5.90;101065;;;;587588;241;24001;-80
2023/06/04 01:38:31;;;;;;;2.73;1.80;;;6.90;99.90;6.00;101070;;;;582326;241;34712;-80
2023/06/04 01:40:58;;;;;;;2.23;0.87;;;6.80;99.90;6.00;101071;;;;587320;241;25278;-78
2023/06/04 01:43:23;;;;;;;4.20;1.63;;;6.90;99.90;6.00;101062;;;;587392;241;24013;-83
2023/06/04 01:45:51;;;;;;;1.50;1.40;;;7.00;99.90;6.00;101062;;;;587160;241;23997;-83
2023/06/04 01:48:19;;;;;;;2.87;1.30;;;6.90;99.90;5.90;101064;;;;587070;241;24000;-81
2023/06/04 01:50:47;;;;;;;3.33;1.43;;;6.80;99.90;5.90;101066;;;;586965;241;23986;-82
2023/06/04 01:53:15;;;;;;;1.43;1.33;;;7.00;99.90;5.90;101068;;;;586965;241;24051;-82
2023/06/04 01:55:44;;;;;;;1.27;1.13;;;6.90;99.90;5.90;101067;;;;586740;241;23991;-84
2023/06/04 01:58:11;;;;;;;1.50;1.40;;;6.80;99.90;5.90;101055;;;;586858;241;24021;-82
2023/06/04 02:00:39;;;;;;;2.60;1.27;;;6.80;99.90;5.90;101065;;;;586692;241;24010;-82
2023/06/04 02:03:08;;;;;;;1.67;1.57;;;6.80;99.90;5.90;101056;;;;587254;241;23985;-81
2023/06/04 02:05:34;;;;;;;3.67;1.60;;;6.80;99.90;5.90;101060;;;;587237;241;23993;-82
2023/06/04 02:08:04;;;;;;;3.40;1.60;;;6.90;99.90;5.90;101060;;;;587296;241;23996;-83
2023/06/04 02:10:30;;;;;;;1.20;1.20;;;6.80;99.90;5.90;101062;;;;587189;241;23991;-82
2023/06/04 02:12:58;;;;;;;1.40;1.30;;;6.80;99.90;5.90;101060;;;;587179;241;23978;-81
2023/06/04 02:15:29;;;;;;;1.87;1.67;;;6.80;99.90;5.90;101053;;;;586808;241;24047;-83
2023/06/04 02:18:02;;;;;;;1.83;1.67;;;6.90;99.90;5.90;101061;;;;586423;241;24013;-81
2023/06/04 02:20:31;;;;;;;3.20;1.80;;;6.80;99.90;5.90;101059;;;;586378;241;24047;-82
2023/06/04 02:22:56;;;;;;;2.83;1.70;;;6.90;99.90;5.90;101058;;;;581792;241;34754;-84
2023/06/04 02:25:24;;;;;;;3.20;1.70;;;6.80;99.90;5.90;101059;;;;587820;240;23986;-83
2023/06/04 02:27:52;;;;;;;3.27;1.60;;;7.00;99.90;6.00;101057;;;;588138;240;23995;-82
2023/06/04 02:30:20;;;;;;;2.80;1.50;;;6.90;99.90;6.00;101057;;;;587811;240;24066;-83
2023/06/04 02:32:50;;;;;;;4.27;1.80;;;6.90;99.90;6.00;101055;;;;587775;240;24010;-78
2023/06/04 02:35:15;;;;;;;2.10;1.50;;;6.90;99.90;6.00;101050;;;;587609;241;24087;-77
2023/06/04 02:37:43;;;;;;;5.63;1.57;;;6.90;99.90;6.10;101049;;;;587751;241;24011;-79
2023/06/04 02:40:11;;;;;;;2.63;1.50;;;6.90;99.90;6.10;101051;;;;587677;241;24022;-82
2023/06/04 02:42:39;;;;;;;2.70;1.60;;;7.10;99.90;6.10;101052;;;;587638;241;24021;-81
2023/06/04 02:45:07;;;;;;;1.30;1.30;;;7.00;99.90;6.20;101051;;;;587426;241;23998;-82
2023/06/04 02:47:35;;;;;;;2.47;1.77;;;7.00;99.90;6.20;101052;;;;587039;241;24000;-81
2023/06/04 02:50:08;;;;;;;2.83;1.57;;;7.10;99.90;6.30;101049;;;;587194;241;24015;-81
2023/06/04 02:52:33;;;;;;;1.50;1.27;;;7.20;99.90;6.30;101054;;;;586637;241;24009;-79
2023/06/04 02:55:02;;;;;;;3.37;1.60;;;7.30;99.90;6.40;101051;;;;586973;241;24053;-81
2023/06/04 02:57:30;;;;;;;2.33;1.60;;;7.30;99.90;6.40;101063;;;;586989;241;23986;-79
2023/06/04 02:59:57;;;;;;;2.37;1.50;;;7.40;99.90;6.50;101060;;;;586912;241;23998;-81
2023/06/04 03:02:25;;;;;;;3.70;2.40;;;7.30;99.90;6.60;101057;;;;586863;241;24000;-81
2023/06/04 03:04:54;;;;;;;2.80;1.50;;;7.50;99.90;6.70;101065;;;;587122;241;23989;-83
2023/06/04 03:07:22;;;;;;;1.23;1.23;;;7.70;99.90;6.90;101065;;;;587064;241;24019;-83
2023/06/04 03:09:49;;;;;;;2.30;1.37;;;7.80;99.90;7.00;101066;;;;587030;241;24102;-83
2023/06/04 03:12:17;;;;;;;1.70;1.47;;;7.80;99.90;7.10;101069;;;;587188;241;24012;-81
2023/06/04 03:14:45;;;;;;;1.93;1.37;;;8.00;99.90;7.20;101062;;;;587139;241;23977;-79
2023/06/04 03:17:13;;;;;;;1.67;1.23;;;8.20;99.90;7.50;101069;;;;587155;241;24047;-84
2023/06/04 03:19:44;;;;;;;2.57;1.33;;;8.70;99.90;8.20;101075;;;;581768;241;45539;-83
2023/06/04 03:22:12;;;;;;;1.13;1.10;;;9.60;99.90;9.10;101060;;;;586630;241;23999;-83
2023/06/04 03:24:39;;;;;;;3.63;1.27;;;9.60;99.90;10.00;101070;;;;586677;241;24040;-84
2023/06/04 03:27:07;;;;;;;1.77;1.57;;;10.50;99.90;10.90;101076;;;;586764;241;23996;-83
2023/06/04 03:29:36;;;;;;;2.30;1.20;;;12.20;99.90;11.70;101077;;;;586547;241;23988;-82
2023/06/04 03:32:04;;;;;;;1.80;1.37;;;13.00;99.90;12.50;101073;;;;586828;241;24001;-83
2023/06/04 03:34:32;;;;;;;1.50;1.40;;;13.00;99.90;13.10;101074;;;;586878;241;24042;-80
2023/06/04 03:37:04;;;;;;;1.37;1.27;;;14.40;99.90;13.80;101090;;;;587535;240;24000;-82
2023/06/04 03:39:29;;;;;;;5.00;1.23;;;14.40;99.90;14.30;101080;;;;587738;240;24066;-84
2023/06/04 03:41:57;;;;;;;1.37;1.37;;;14.90;99.90;15.00;101084;;;;587652;240;24080;-82
2023/06/04 03:44:25;;;;;;;2.77;1.53;;;15.60;98.00;15.60;101091;;;;587672;240;23997;-83
2023/06/04 03:46:53;;;;;;;2.07;1.77;;;16.20;96.00;16.20;101081;;;;587327;241;23993;-82
2023/06/04 03:49:21;;;;;;;4.60;1.40;;;16.80;93.70;16.70;101077;;;;587706;241;23976;-83
2023/06/04 03:51:49;;;;;;;1.77;1.67;;;17.30;91.90;17.40;101085;;;;582566;241;34831;-80
2023/06/04 03:54:19;;;;;;;2.30;1.43;;;18.00;89.30;17.80;101078;;;;587548;241;23022;-79
2023/06/04 03:56:47;;;;;;;2.30;1.43;;;18.40;86.70;18.50;101079;;;;587033;241;23042;-83
2023/06/04 03:59:15;;;;;;;2.43;1.23;;;19.10;81.20;19.00;101087;;;;586995;241;24067;-83
2023/06/04 04:01:43;;;;;;;1.57;1.30;;;19.60;78.20;19.40;101083;;;;587402;241;23013;-81
2023/06/04 04:04:11;;;;;;;1.60;1.50;;;20.10;73.90;19.90;101079;;;;587451;241;23992;-82
2023/06/04 04:06:39;;;;;;;1.30;1.20;;;20.60;71.50;20.10;101084;;;;587120;241;23993;-82
2023/06/04 04:09:07;;;;;;;1.40;1.30;;;20.90;70.80;20.60;101088;;;;576346;245;22996;-79
2023/06/04 04:11:35;;;;;;;1.87;1.40;;;21.40;68.70;21.00;101079;;;;586988;241;23929;-81
2023/06/04 04:14:02;;;;;;;1.77;1.50;;;21.80;66.60;21.50;101082;;;;586853;241;23932;-78
2023/06/04 04:16:30;;;;;;;1.73;1.57;;;22.40;64.10;21.90;101083;;;;586731;241;23967;-83
2023/06/04 04:18:59;;;;;;;4.20;1.90;;;23.20;60.20;22.40;101085;;;;586891;241;23957;-82
2023/06/04 04:21:27;;;;;;;3.20;1.37;;;23.20;60.10;22.70;101085;;;;587143;241;23984;-84
2023/06/04 04:23:55;;;;;;;1.87;1.70;;;23.60;58.90;23.10;101078;;;;587184;241;23918;-82
2023/06/04 04:26:23;;;;;;;2.43;1.63;;;24.00;57.60;23.60;101085;;;;587105;241;23937;-81
2023/06/04 04:28:52;;;;;;;1.27;1.20;;;24.50;56.20;23.80;101088;;;;576569;245;23943;-80
2023/06/04 04:31:19;;;;;;;1.43;1.33;;;24.80;56.00;24.30;101091;;;;585404;245;23032;-80
2023/06/04 04:33:47;;;;;;;9.70;1.60;;;25.40;55.30;25.00;101091;;;;587142;241;22963;-83
2023/06/04 04:36:14;;;;;;;1.40;1.30;;;26.00;53.40;25.40;101099;;;;587126;241;22958;-82
2023/06/04 04:38:44;;;;;;;1.60;1.50;;;27.10;51.00;26.10;101100;;;;586858;241;22970;-84
2023/06/04 04:41:12;;;;;;;1.33;1.30;;;27.60;49.80;26.50;101099;;;;576067;245;24033;-80
2023/06/04 04:43:40;;;;;;;1.60;1.40;;;28.10;48.40;26.90;101096;;;;586796;241;22953;-82
2023/06/04 04:46:09;;;;;;;2.03;1.52;;;28.00;48.90;27.50;101099;;;;586685;241;23001;-81
2023/06/04 04:48:38;;;;;;;2.55;1.37;;;28.70;48.30;27.90;101088;;;;587703;240;23004;-83
2023/06/04 04:51:04;;;;;;;4.20;1.60;;;29.10;47.40;28.50;101089;;;;577677;245;22984;-82
2023/06/04 04:53:32;;;;;;;1.52;1.42;;;29.70;46.90;29.20;101094;;;;588250;240;22970;-83
2023/06/04 04:56:00;;;;;;;1.35;1.25;;;30.40;45.90;30.00;101093;;;;588204;240;22950;-82
2023/06/04 04:58:28;;;;;;;1.65;1.55;;;31.10;44.90;30.30;101096;;;;587559;241;22974;-82
2023/06/04 05:00:56;;;;;;;1.83;1.48;;;31.60;43.60;30.80;101103;;;;587800;241;22985;-82
2023/06/04 05:03:24;;;;;;;2.55;1.50;;;32.10;42.70;31.20;101101;;;;587801;241;23989;-82
2023/06/04 05:05:52;;;;;;;4.45;1.42;;;32.50;41.60;31.80;101105;;;;587637;241;23976;-82
2023/06/04 05:08:20;;;;;;;1.58;1.42;;;33.50;39.70;32.30;101108;;;;587050;241;23112;-82
2023/06/04 05:10:48;;;;;;;2.28;1.60;;;33.50;40.00;32.80;101108;;;;582295;241;34062;-80
2023/06/04 05:13:19;;;;;;;4.37;1.33;;;33.90;39.30;33.00;101112;;;;587050;241;22979;-85
2023/06/04 05:15:45;;;;;;;1.40;1.30;;;34.30;38.50;33.30;101113;;;;586831;241;22951;-84
2023/06/04 05:18:12;;;;;;;2.70;1.65;;;34.40;38.20;33.50;101107;;;;576641;245;22981;-85
2023/06/04 05:20:40;;;;;;;1.48;1.48;;;34.80;38.80;34.20;101105;;;;587448;241;24012;-83
2023/06/04 05:23:08;;;;;;;4.03;1.58;;;35.20;37.00;34.60;101108;;;;587455;241;23009;-83
2023/06/04 05:25:36;;;;;;;3.62;1.77;;;35.60;36.30;34.80;101112;;;;587245;241;23020;-85
2023/06/04 05:28:06;;;;;;;1.50;1.40;;;36.00;36.00;35.00;101110;;;;587118;241;22958;-81
2023/06/04 05:30:33;;;;;;;2.00;1.60;;;36.20;36.30;35.60;101105;;;;571510;245;34190;-80
2023/06/04 05:33:00;;;;;;;3.17;1.60;;;36.80;35.10;35.70;101107;;;;587129;241;22982;-84
2023/06/04 05:35:29;;;;;;;3.35;1.60;;;37.10;34.80;36.10;101112;;;;587272;241;22939;-82
2023/06/04 05:37:57;;;;;;;1.77;1.58;;;37.10;34.80;36.40;101114;;;;576803;245;24050;-85
2023/06/04 05:40:25;;;;;;;1.83;1.60;;;37.60;34.40;36.70;101109;;;;587111;241;24000;-83
2023/06/04 05:42:53;;;;;;;1.60;1.50;;;37.70;34.10;37.30;101116;;;;587311;241;22964;-82
2023/06/04 05:45:21;;;;;;;2.58;1.15;;;38.10;33.90;37.60;101112;;;;587314;241;22957;-82
2023/06/04 05:47:49;;;;;;;1.65;1.55;;;38.60;32.80;37.70;101122;;;;586982;241;22976;-82
2023/06/04 05:50:17;;;;;;;4.57;1.60;;;38.60;32.70;37.80;101118;;;;587276;241;22968;-85
2023/06/04 05:52:45;;;;;;;2.20;1.60;;;38.60;33.20;37.90;101119;;;;587347;241;22949;-85
2023/06/04 05:55:14;;;;;;;1.37;1.27;;;38.70;33.00;38.30;101121;;;;587330;241;22967;-85
2023/06/04 05:57:41;;;;;;;1.92;1.20;;;39.00;33.70;38.80;101120;;;;576625;245;23014;-81
2023/06/04 06:00:10;;;;;;;5.43;1.67;;;39.40;32.10;39.20;101127;;;;588205;240;22965;-83
2023/06/04 06:02:38;;;;;;;1.65;1.30;;;39.80;32.30;39.50;101131;;;;588479;240;22947;-82
2023/06/04 06:05:08;;;;;;;3.53;1.30;;;40.20;31.60;39.90;101130;;;;577618;245;23008;-81
2023/06/04 06:07:36;;;;;;;2.83;1.10;;;40.50;31.60;40.20;101131;;;;588328;240;23974;-81
2023/06/04 06:10:08;;;;;;;4.15;1.50;;;40.90;31.30;40.50;101131;;;;587788;241;22953;-82
2023/06/04 06:12:32;;;;;;;2.12;1.33;;;41.20;31.50;41.00;101130;;;;587389;241;22985;-82
2023/06/04 06:15:00;;;;;;;1.33;1.23;;;41.60;30.90;41.10;101138;;;;587495;241;22950;-83
2023/06/04 06:17:28;;;;;;;1.12;1.08;;;41.80;30.70;41.30;101137;;;;587322;241;22958;-82
2023/06/04 06:19:56;;;;;;;1.73;1.52;;;41.90;30.40;41.50;101142;;;;587014;241;22940;-81
2023/06/04 06:22:27;;;;;;;1.90;1.20;;;42.20;30.00;41.80;101142;;;;587441;241;22949;-83
2023/06/04 06:24:52;;;;;;;2.15;1.33;;;42.30;29.80;41.90;101136;;;;587252;241;23064;-81
2023/06/04 06:27:20;;;;;;;2.83;1.30;;;42.70;29.80;42.30;101136;;;;587345;241;22958;-83
2023/06/04 06:29:49;;;;;;;1.48;1.37;;;43.10;29.60;42.70;101144;;;;587345;241;23994;-82
2023/06/04 06:32:18;;;;;;;4.75;1.85;;;43.30;29.40;42.90;101141;;;;587395;241;24098;-84
2023/06/04 06:34:46;;;;;;;1.67;1.35;;;43.30;29.70;43.00;101137;;;;582247;241;34136;-82
2023/06/04 06:37:14;;;;;;;9.68;1.23;;;43.50;28.90;42.80;101146;;;;587142;241;22955;-83
2023/06/04 06:39:41;;;;;;;5.00;1.35;;;43.40;29.10;42.60;101142;;;;587150;241;22947;-83
2023/06/04 06:42:13;;;;;;;3.25;1.30;;;43.20;29.00;42.60;101149;;;;586797;241;22971;-80
2023/06/04 06:44:37;;;;;;;1.27;1.17;;;42.90;29.20;42.70;101143;;;;586662;241;22957;-81
2023/06/04 06:47:05;;;;;;;1.08;1.08;;;43.00;28.90;42.50;101150;;;;586865;241;22961;-84
2023/06/04 06:49:33;;;;;;;1.45;1.35;;;42.70;29.00;42.50;101148;;;;586878;241;22993;-82
2023/06/04 06:52:02;;;;;;;1.23;1.15;;;42.80;29.00;42.60;101147;;;;587224;241;22947;-81
2023/06/04 06:54:30;;;;;;;2.15;1.15;;;43.30;29.00;43.20;101155;;;;587158;241;24003;-81
2023/06/04 06:56:59;;;;;;;3.40;1.20;;;43.50;29.30;43.30;101153;;;;587163;241;22983;-82
2023/06/04 06:59:27;;;;;;;2.58;1.10;;;43.40;28.70;43.80;101160;;;;586789;241;22958;-81
2023/06/04 07:01:55;;;;;;;2.45;1.25;;;43.90;28.50;44.00;101150;;;;586660;241;22963;-84
2023/06/04 07:04:23;;;;;;;1.50;1.40;;;44.20;28.20;44.30;101151;;;;586846;241;23034;-80
2023/06/04 07:06:51;;;;;;;2.72;1.30;;;44.50;28.30;44.70;101148;;;;586754;241;22976;-81
2023/06/04 07:09:19;;;;;;;0.98;0.98;;;44.90;28.20;45.20;101157;;;;586934;241;24016;-82
2023/06/04 07:11:47;;;;;;;1.70;1.20;;;45.30;28.00;45.40;101156;;;;587591;240;22963;-82
2023/06/04 07:14:15;;;;;;;2.33;1.12;;;45.60;27.70;45.70;101160;;;;587993;240;23029;-80
2023/06/04 07:16:42;;;;;;;1.30;1.10;;;45.90;27.40;45.60;101154;;;;577108;245;24021;-82
2023/06/04 07:19:10;;;;;;;1.55;1.10;;;45.90;27.20;45.90;101150;;;;587578;240;22961;-82
2023/06/04 07:21:39;;;;;;;1.02;1.00;;;46.50;27.40;46.30;101158;;;;587748;241;23046;-78
2023/06/04 07:24:07;;;;;;;0.90;0.90;;;46.40;27.00;46.50;101164;;;;587723;241;23994;-79
2023/06/04 07:26:35;;;;;;;1.35;1.25;;;46.70;26.70;46.40;101163;;;;587708;241;23972;-79
2023/06/04 07:29:03;;;;;;;1.02;1.02;;;46.60;26.60;46.40;101153;;;;587673;241;24001;-79
2023/06/04 07:31:31;;;;;;;1.33;1.00;;;46.70;26.90;46.50;101166;;;;587420;241;23026;-79
2023/06/04 07:33:59;;;;;;;1.20;1.10;;;46.80;27.10;46.50;101161;;;;587438;241;23962;-78
2023/06/04 07:36:27;;;;;;;1.20;1.10;;;46.90;27.00;46.60;101162;;;;587406;241;24006;-79
2023/06/04 07:38:55;;;;;;;1.40;1.20;;;47.10;27.00;46.90;101164;;;;587432;241;23088;-78
2023/06/04 07:41:25;;;;;;;1.30;1.20;;;47.30;27.00;47.20;101166;;;;587365;241;22942;-77
2023/06/04 07:43:52;;;;;;;1.45;1.20;;;47.50;27.00;47.00;101165;;;;576264;245;22986;-80
2023/06/04 07:46:20;;;;;;;1.92;1.10;;;47.40;27.20;46.70;101162;;;;587117;241;24024;-78
2023/06/04 07:48:49;;;;;;;1.27;1.17;;;47.10;26.50;46.70;101165;;;;586734;241;22954;-79
2023/06/04 07:51:19;;;;;;;3.22;1.33;;;47.00;26.60;47.00;101171;;;;587154;241;22932;-77
2023/06/04 07:53:45;;;;;;;0.90;0.90;;;47.20;26.60;47.20;101173;;;;576515;245;23033;-80
2023/06/04 07:56:13;;;;;;;0.80;0.80;;;47.50;26.40;47.00;101164;;;;587072;241;22943;-78
2023/06/04 07:58:41;;;;;;;1.33;1.20;;;47.30;26.60;47.00;101169;;;;586834;241;23014;-77
2023/06/04 08:01:09;;;;;;;1.85;1.00;;;47.30;26.40;47.00;101164;;;;586663;241;22937;-78
2023/06/04 08:03:37;;;;;;;2.22;1.17;;;47.20;26.40;47.10;101169;;;;576115;245;22998;-77
2023/06/04 08:06:05;;;;;;;1.17;1.10;;;47.30;26.40;47.00;101164;;;;584861;245;23014;-78
2023/06/04 08:08:33;;;;;;;0.80;0.80;;;47.30;26.40;47.20;101168;;;;576255;245;23060;-79
2023/06/04 08:11:01;;;;;;;4.03;1.00;;;47.30;26.40;47.20;101165;;;;584905;245;22995;-78
2023/06/04 08:13:29;;;;;;;2.15;1.20;;;47.40;26.30;47.20;101164;;;;586684;241;22949;-78
2023/06/04 08:15:58;;;;;;;3.35;1.17;;;47.70;26.20;47.50;101157;;;;586814;241;22955;-78
2023/06/04 08:18:25;;;;;;;0.95;0.95;;;47.70;26.10;47.50;101170;;;;586679;241;22954;-77
2023/06/04 08:20:53;;;;;;;2.10;1.17;;;47.80;25.90;47.30;101164;;;;586883;241;22970;-77
2023/06/04 08:23:21;;;;;;;1.08;1.08;;;47.70;26.10;47.60;101166;;;;586189;243;22997;-78
2023/06/04 08:25:50;;;;;;;6.15;1.27;;;47.90;26.10;47.80;101167;;;;588350;240;22949;-76
2023/06/04 08:28:20;;;;;;;2.40;0.98;;;48.10;26.10;48.10;101172;;;;577408;245;22992;-76
2023/06/04 08:30:45;;;;;;;2.67;0.90;;;48.50;25.80;48.20;101171;;;;585942;244;23034;-77
2023/06/04 08:33:13;;;;;;;3.20;1.10;;;48.60;25.60;48.50;101168;;;;587596;241;25022;-78
2023/06/04 08:35:42;;;;;;;2.70;1.10;;;48.80;25.70;48.40;101174;;;;587702;241;24040;-77
2023/06/04 08:38:10;;;;;;;1.67;1.00;;;49.00;25.70;48.60;101164;;;;587716;241;22991;-77
2023/06/04 08:40:38;;;;;;;3.58;1.45;;;48.90;25.70;48.80;101168;;;;587629;241;22962;-77
2023/06/04 08:43:09;;;;;;;4.93;1.50;;;49.30;25.90;48.20;101175;;;;587369;241;22993;-77
2023/06/04 08:45:34;;;;;;;2.05;1.70;;;48.90;26.50;47.70;101177;;;;576134;245;23011;-77
2023/06/04 08:48:06;;;;;;;1.85;1.40;;;48.50;26.30;47.00;101171;;;;575861;245;23003;-78
2023/06/04 08:50:31;;;;;;;2.45;1.10;;;48.00;26.50;46.70;101174;;;;576171;245;22976;-79
2023/06/04 08:52:58;;;;;;;1.00;1.00;;;47.70;26.80;46.20;101173;;;;587359;241;22996;-79
2023/06/04 08:55:26;;;;;;;1.40;1.30;;;47.20;26.40;45.80;101176;;;;582353;241;34060;-78
2023/06/04 08:57:54;;;;;;;4.80;1.20;;;46.70;26.70;46.00;101186;;;;571599;244;34222;-78
2023/06/04 09:00:23;;;;;;;3.05;1.00;;;47.20;26.50;46.60;101179;;;;581163;243;23083;-79
2023/06/04 09:02:54;;;;;;;2.40;1.10;;;47.10;26.40;47.00;101182;;;;577122;244;23071;-77
2023/06/04 09:05:23;;;;;;;1.48;1.25;;;48.20;25.80;47.60;101181;;;;577394;244;23117;-78
2023/06/04 09:07:51;;;;;;;3.25;1.40;;;48.10;25.70;48.40;101179;;;;588387;240;23039;-79
2023/06/04 09:10:22;;;;;;;3.97;1.23;;;49.00;25.70;48.90;101178;;;;577388;244;23121;-78
2023/06/04 09:12:46;;;;;;;6.25;1.40;;;49.70;25.50;49.00;101181;;;;577700;244;23105;-80
2023/06/04 09:15:15;;;;;;;1.55;1.40;;;50.30;25.00;49.10;101183;;;;577465;244;24118;-79
2023/06/04 09:17:44;;;;;;;0.93;0.93;;;50.40;25.10;49.20;101178;;;;577488;244;23043;-79
2023/06/04 09:20:22;;;;;;;2.05;0.93;;;50.60;25.60;49.40;101176;;;;588280;240;23079;-79
2023/06/04 09:22:53;;;;;;;7.80;1.40;;;50.60;25.20;49.80;101176;;;;588583;240;23056;-82
2023/06/04 09:25:25;;;;;;;2.28;1.25;;;51.00;24.60;49.80;101172;;;;588487;240;23025;-79
2023/06/04 09:27:55;;;;;;;2.00;1.90;;;51.20;24.10;49.50;101176;;;;588644;240;23071;-79
2023/06/04 09:30:19;;;;;;;1.55;1.45;;;51.10;24.70;49.10;101172;;;;588317;240;23113;-79
2023/06/04 09:32:48;;;;;;;3.03;1.65;;;50.60;25.70;49.00;101167;;;;588585;240;23087;-80
2023/06/04 09:35:19;;;;;;;3.40;1.77;;;50.40;25.70;48.90;101169;;;;589687;239;23041;-80
2023/06/04 09:37:55;;;;;;;2.12;2.00;;;50.40;25.70;49.40;101169;;;;589841;239;23072;-78
2023/06/04 09:40:24;;;;;;;2.10;1.55;;;50.30;25.80;48.80;101168;;;;589523;240;23045;-77
2023/06/04 09:42:55;;;;;;;2.03;1.83;;;50.20;25.30;47.50;101173;;;;589427;240;23024;-77
2023/06/04 09:45:36;;;;;;;2.58;1.83;;;49.10;25.90;47.10;101170;;;;589202;240;23175;-78
2023/06/04 09:48:01;;;;;;;2.30;1.30;;;49.00;25.80;46.90;101169;;;;588650;240;23043;-77
2023/06/04 09:50:33;;;;;;;1.92;1.60;;;48.60;26.00;46.50;101171;;;;588497;240;23079;-77
2023/06/04 09:53:02;;;;;;;1.50;1.40;;;48.20;25.80;46.50;101172;;;;588819;240;23118;-77
2023/06/04 09:55:28;;;;;;;1.75;1.65;;;48.00;25.70;46.00;101172;;;;588577;240;23108;-79
2023/06/04 09:57:55;;;;;;;1.17;1.17;;;47.60;25.80;45.40;101166;;;;588698;240;24084;-80
2023/06/04 10:00:28;;;;;;;1.95;1.50;;;47.20;26.20;45.40;101164;;;;588456;240;23061;-78
2023/06/04 10:02:54;;;;;;;1.70;1.60;;;47.00;26.50;44.90;101159;;;;588120;240;23037;-77
2023/06/04 10:05:23;;;;;;;3.10;1.95;;;46.10;26.70;44.80;101170;;;;588135;240;23030;-79
2023/06/04 10:07:52;;;;;;;4.03;1.50;;;45.70;26.30;44.10;101169;;;;588330;240;23046;-79
2023/06/04 10:10:22;;;;;;;2.17;1.70;;;45.70;26.50;43.40;101164;;;;583109;240;34818;-78
2023/06/04 10:12:50;;;;;;;2.53;1.40;;;45.20;26.50;41.90;101175;;;;587705;240;23033;-78
2023/06/04 10:15:21;;;;;;;4.03;1.80;;;44.10;26.80;40.80;101170;;;;588226;240;23046;-78
2023/06/04 10:17:46;;;;;;;1.83;1.60;;;42.00;27.90;39.90;101175;;;;587611;240;24107;-78
2023/06/04 10:52:16;;;;;;;189.83;92.70;;;29.30;37.00;26.50;101154;;;;549686;258;23182;-81
2023/06/04 10:54:45;;;;;;;2.17;1.27;;;26.60;40.30;25.70;101156;;;;556838;257;24231;-82
2023/06/04 10:57:21;;;;;;;2.83;1.57;;;25.80;41.90;25.00;101153;;;;563885;249;23204;-83
2023/06/04 10:59:58;;;;;;;1.30;1.20;;;25.70;41.80;24.40;101159;;;;574369;244;23121;-83
2023/06/04 11:02:26;;;;;;;2.63;1.70;;;25.20;42.70;23.80;101153;;;;578734;244;24125;-83
2023/06/04 11:05:07;;;;;;;1.93;1.37;;;24.50;43.80;23.30;101149;;;;587313;243;24055;-85
2023/06/04 11:07:31;;;;;;;9.17;3.77;;;24.10;44.70;23.10;101150;;;;577975;244;24123;-79
2023/06/04 11:09:59;;;;;;;3.20;2.07;;;23.70;46.00;22.80;101155;;;;577115;244;24103;-83
2023/06/04 11:12:30;;;;;;;1.93;1.30;;;23.30;47.20;22.40;101143;;;;578305;244;24106;-81
2023/06/04 11:15:01;;;;;;;6.93;1.47;;;23.00;48.30;22.00;101140;;;;577905;244;24067;-82
2023/06/04 11:17:26;;;;;;;3.17;1.17;;;22.60;48.70;21.80;101142;;;;578308;244;24068;-82
2023/06/04 11:19:55;;;;;;;1.80;1.23;;;22.30;49.40;21.70;101155;;;;578166;244;24026;-82
2023/06/04 11:22:25;;;;;;;1.00;1.00;;;22.10;49.60;21.40;101157;;;;589124;240;24026;-79
2023/06/04 11:24:52;;;;;;;2.00;1.50;;;21.90;50.60;21.30;101154;;;;581737;243;24061;-83
2023/06/04 11:27:22;;;;;;;5.27;2.73;;;21.70;51.40;21.00;101153;;;;578184;244;24053;-79
2023/06/04 11:29:46;;;;;;;5.13;2.27;;;21.60;52.90;20.70;101151;;;;577789;244;24066;-79
2023/06/04 11:32:14;;;;;;;8.03;2.83;;;21.40;53.90;20.50;101147;;;;575109;244;24075;-82
2023/06/04 11:34:42;;;;;;;4.83;1.67;;;21.20;54.50;20.30;101160;;;;577083;244;23078;-81
2023/06/04 11:37:12;;;;;;;2.73;1.40;;;20.70;53.90;20.10;101155;;;;578450;244;24061;-84
2023/06/04 11:39:42;;;;;;;5.43;2.60;;;20.70;53.90;19.70;101146;;;;577903;244;23133;-82
2023/06/04 11:42:11;;;;;;;5.17;3.97;;;20.20;54.80;19.60;101155;;;;577964;244;24108;-81
2023/06/04 11:44:36;;;;;;;9.07;2.83;;;20.20;55.00;19.40;101154;;;;577320;245;24061;-83
2023/06/04 11:47:12;;;;;;;5.97;1.63;;;19.80;54.20;19.20;101147;;;;578336;244;24046;-82
2023/06/04 11:49:39;;;;;;;3.93;2.27;;;19.80;54.20;19.10;101147;;;;577825;244;24149;-82
2023/06/04 11:52:05;;;;;;;1.03;0.77;;;19.70;54.30;19.10;101139;;;;586422;244;24052;-82